createdAt,value
2019-05-13T00:01:17.962Z,55.53
2019-05-13T00:03:44.091Z,55.52
2019-05-13T00:06:09.981Z,55.62
2019-05-13T00:08:35.971Z,55.61
2019-05-13T00:11:04.206Z,55.52
2019-05-13T00:13:27.989Z,55.53
2019-05-13T00:15:54.476Z,55.64
2019-05-13T00:18:20.028Z,55.42
2019-05-13T00:20:46.023Z,55.49
2019-05-13T00:23:14.065Z,55.55
2019-05-13T00:25:38.042Z,55.55
2019-05-13T00:28:04.399Z,55.53
2019-05-13T00:30:30.060Z,55.47
2019-05-13T00:32:56.077Z,55.51
2019-05-13T00:35:23.311Z,55.46
2019-05-13T00:37:48.070Z,55.46
2019-05-13T00:40:14.525Z,55.37
2019-05-13T00:42:40.088Z,55.48
2019-05-13T00:45:06.128Z,55.33
2019-05-13T00:47:34.106Z,55.32
2019-05-13T00:49:58.147Z,55.44
2019-05-13T00:52:24.218Z,55.30
2019-05-13T00:54:50.222Z,55.35
2019-05-13T00:57:16.232Z,55.38
2019-05-13T00:59:44.145Z,55.30
2019-05-13T01:02:08.249Z,55.37
2019-05-13T01:04:34.271Z,55.34
2019-05-13T01:07:00.271Z,55.37
2019-05-13T01:09:26.294Z,55.35
2019-05-13T01:11:53.705Z,55.29
2019-05-13T01:14:18.313Z,55.33
2019-05-13T01:16:44.531Z,55.24
2019-05-13T01:19:10.323Z,55.25
2019-05-13T01:21:36.370Z,55.32
2019-05-13T01:24:03.784Z,55.29
2019-05-13T01:26:28.388Z,55.27
2019-05-13T01:28:54.385Z,55.25
2019-05-13T01:31:20.409Z,55.12
2019-05-13T01:33:46.406Z,55.25
2019-05-13T01:36:13.435Z,55.25
2019-05-13T01:38:38.428Z,55.21
2019-05-13T01:41:04.647Z,55.19
2019-05-13T01:43:30.438Z,55.21
2019-05-13T01:45:56.437Z,55.12
2019-05-13T01:48:24.026Z,55.13
2019-05-13T01:50:48.451Z,55.15
2019-05-13T01:53:14.669Z,55.18
2019-05-13T01:55:40.494Z,55.19
2019-05-13T01:58:06.493Z,55.16
2019-05-13T02:00:35.271Z,55.16
2019-05-13T02:02:58.504Z,55.15
2019-05-13T02:05:24.509Z,55.13
2019-05-13T02:07:59.666Z,55.10
2019-05-13T02:10:16.521Z,55.14
2019-05-13T02:12:44.581Z,55.12
2019-05-13T02:15:08.571Z,55.09
2019-05-13T02:17:34.573Z,55.10
2019-05-13T02:20:00.585Z,55.04
2019-05-13T02:22:26.585Z,55.08
2019-05-13T02:24:53.535Z,55.07
2019-05-13T02:27:18.601Z,55.00
2019-05-13T02:29:44.623Z,55.04
2019-05-13T02:32:13.639Z,55.02
2019-05-13T02:34:36.612Z,55.06
2019-05-13T02:37:03.408Z,55.06
2019-05-13T02:39:28.624Z,55.02
2019-05-13T02:41:54.668Z,55.02
2019-05-13T02:44:22.579Z,54.98
2019-05-13T02:46:46.671Z,55.00
2019-05-13T02:49:12.689Z,55.00
2019-05-13T02:51:38.690Z,54.98
2019-05-13T02:54:04.683Z,54.96
2019-05-13T02:56:33.040Z,54.90
2019-05-13T02:58:56.709Z,54.96
2019-05-13T03:01:22.725Z,54.93
2019-05-13T03:03:52.543Z,54.90
2019-05-13T03:06:14.745Z,54.93
2019-05-13T03:08:49.096Z,54.94
2019-05-13T03:11:06.800Z,54.90
2019-05-13T03:13:33.207Z,54.91
2019-05-13T03:16:02.506Z,54.85
2019-05-13T03:18:24.829Z,54.92
2019-05-13T03:20:52.956Z,54.89
2019-05-13T03:23:16.837Z,54.86
2019-05-13T03:25:43.116Z,54.89
2019-05-13T03:28:08.862Z,54.89
2019-05-13T03:30:35.815Z,54.87
2019-05-13T03:33:07.962Z,54.85
2019-05-13T03:35:37.233Z,54.84
2019-05-13T03:38:03.749Z,54.87
2019-05-13T03:40:32.949Z,54.83
2019-05-13T03:42:56.373Z,54.83
2019-05-13T03:45:22.369Z,54.75
2019-05-13T03:47:48.384Z,54.82
2019-05-13T03:50:14.378Z,54.79
2019-05-13T03:52:43.121Z,54.81
2019-05-13T03:55:06.535Z,54.80
2019-05-13T03:57:33.774Z,54.79
2019-05-13T03:59:58.535Z,54.74
2019-05-13T04:02:24.579Z,54.88
2019-05-13T04:04:52.968Z,54.82
2019-05-13T04:07:16.620Z,54.94
2019-05-13T04:09:42.817Z,54.98
2019-05-13T04:12:08.673Z,54.97
2019-05-13T04:14:34.681Z,54.90
2019-05-13T04:17:02.954Z,55.11
2019-05-13T04:19:26.696Z,55.24
2019-05-13T04:21:53.021Z,55.13
2019-05-13T04:24:18.727Z,55.24
2019-05-13T04:26:44.742Z,55.20
2019-05-13T04:29:13.209Z,55.08
2019-05-13T04:31:36.788Z,55.30
2019-05-13T04:34:02.816Z,55.35
2019-05-13T04:36:31.837Z,55.44
2019-05-13T04:38:54.816Z,55.52
2019-05-13T04:41:22.972Z,55.64
2019-05-13T04:43:46.902Z,55.45
2019-05-13T04:46:14.106Z,55.74
2019-05-13T04:48:43.569Z,55.79
2019-05-13T04:51:04.981Z,55.50
2019-05-13T04:53:33.323Z,55.79
2019-05-13T04:55:57.002Z,56.07
2019-05-13T04:58:23.724Z,56.90
2019-05-13T05:00:56.061Z,56.65
2019-05-13T05:03:23.139Z,57.12
2019-05-13T05:05:42.060Z,56.54
2019-05-13T05:08:07.095Z,56.69
2019-05-13T05:10:38.292Z,56.62
2019-05-13T05:12:59.131Z,56.61
2019-05-13T05:15:25.148Z,56.70
2019-05-13T05:17:52.191Z,56.56
2019-05-13T05:20:17.163Z,56.48
2019-05-13T05:22:43.664Z,56.46
2019-05-13T05:25:11.659Z,56.56
2019-05-13T05:27:35.713Z,56.99
2019-05-13T05:30:02.180Z,56.46
2019-05-13T05:32:27.794Z,56.46
2019-05-13T05:34:53.780Z,56.66
2019-05-13T05:37:21.702Z,56.65
2019-05-13T05:39:45.821Z,56.42
2019-05-13T05:42:11.848Z,56.38
2019-05-13T05:44:37.845Z,56.22
2019-05-13T05:47:03.887Z,56.23
2019-05-13T05:49:31.996Z,56.14
2019-05-13T05:51:56.064Z,56.20
2019-05-13T05:54:22.077Z,56.29
2019-05-13T05:56:48.082Z,56.20
2019-05-13T05:59:14.073Z,56.05
2019-05-13T06:01:41.575Z,56.32
2019-05-13T06:06:36.406Z,56.36
2019-05-13T06:09:02.430Z,56.27
2019-05-13T06:11:28.443Z,56.27
2019-05-13T06:13:54.727Z,56.38
2019-05-13T06:16:21.835Z,56.09
2019-05-13T06:18:49.064Z,56.38
2019-05-13T06:21:15.187Z,56.31
2019-05-13T06:23:41.835Z,56.24
2019-05-13T06:26:07.207Z,56.23
2019-05-13T06:28:33.222Z,56.46
2019-05-13T06:31:02.303Z,56.38
2019-05-13T06:33:25.275Z,56.41
2019-05-13T06:35:52.128Z,56.34
2019-05-13T06:38:17.577Z,56.21
2019-05-13T06:40:43.573Z,56.19
2019-05-13T06:43:11.845Z,56.10
2019-05-13T06:45:35.622Z,56.48
2019-05-13T06:48:02.404Z,56.32
2019-05-13T06:50:27.666Z,56.30
2019-05-13T06:52:53.743Z,56.02
2019-05-13T06:55:21.236Z,56.24
2019-05-13T06:57:45.733Z,56.07
2019-05-13T07:00:12.282Z,56.38
2019-05-13T07:02:37.805Z,56.10
2019-05-13T07:05:03.827Z,55.87
2019-05-13T07:07:31.845Z,55.90
2019-05-13T07:09:55.899Z,55.89
2019-05-13T07:12:22.122Z,56.21
2019-05-13T07:14:48.030Z,56.12
2019-05-13T07:17:14.159Z,56.00
2019-05-13T07:19:41.453Z,56.05
2019-05-13T07:22:06.311Z,55.91
2019-05-13T07:24:32.664Z,55.98
2019-05-13T07:26:58.480Z,56.12
2019-05-13T07:29:24.512Z,56.06
2019-05-13T07:31:52.273Z,56.06
2019-05-13T07:34:16.762Z,56.01
2019-05-13T07:36:42.836Z,56.15
2019-05-13T07:39:08.837Z,55.93
2019-05-13T07:41:39.187Z,55.97
2019-05-13T07:44:02.588Z,55.85
2019-05-13T07:46:27.010Z,55.90
2019-05-13T07:48:53.068Z,55.74
2019-05-13T07:51:19.100Z,55.78
2019-05-13T07:53:45.118Z,55.92
2019-05-13T07:56:12.446Z,55.77
2019-05-13T07:58:37.836Z,55.77
2019-05-13T08:01:03.327Z,55.67
2019-05-13T08:03:31.563Z,55.71
2019-05-13T08:05:55.487Z,55.73
2019-05-13T08:08:22.118Z,55.91
2019-05-13T08:10:47.623Z,55.83
2019-05-13T08:13:13.654Z,55.60
2019-05-13T08:15:41.953Z,55.80
2019-05-13T08:18:05.710Z,55.53
2019-05-13T08:20:32.764Z,55.81
2019-05-13T08:22:57.842Z,55.62
2019-05-13T08:25:23.849Z,55.60
2019-05-13T08:27:51.434Z,55.68
2019-05-13T08:30:18.130Z,55.60
2019-05-13T08:32:42.091Z,55.76
2019-05-13T08:35:09.169Z,55.82
2019-05-13T08:37:33.968Z,55.60
2019-05-13T08:40:01.580Z,55.70
2019-05-13T08:42:25.990Z,55.76
2019-05-13T08:44:52.532Z,55.80
2019-05-13T08:47:18.068Z,55.74
2019-05-13T08:49:44.112Z,55.56
2019-05-13T08:52:12.141Z,55.70
2019-05-13T08:54:36.176Z,55.45
2019-05-13T08:57:02.770Z,55.67
2019-05-13T08:59:28.201Z,55.60
2019-05-13T09:01:54.200Z,55.59
2019-05-13T09:04:22.266Z,55.61
2019-05-13T09:06:46.236Z,55.44
2019-05-13T09:09:12.426Z,55.52
2019-05-13T09:11:38.476Z,55.45
2019-05-13T09:14:04.517Z,55.52
2019-05-13T09:16:31.993Z,55.56
2019-05-13T09:18:56.502Z,55.34
2019-05-13T09:21:22.651Z,55.36
2019-05-13T09:23:48.513Z,55.55
2019-05-13T09:26:14.513Z,55.52
2019-05-13T09:28:41.736Z,55.57
2019-05-13T09:31:06.552Z,55.51
2019-05-13T09:33:32.900Z,55.45
2019-05-13T09:35:58.570Z,55.45
2019-05-13T09:38:24.582Z,55.53
2019-05-13T09:40:53.103Z,55.38
2019-05-13T09:43:16.591Z,55.49
2019-05-13T09:45:42.612Z,55.53
2019-05-13T09:48:08.599Z,55.36
2019-05-13T09:50:36.213Z,55.40
2019-05-13T09:53:02.750Z,55.27
2019-05-13T09:55:29.276Z,55.29
2019-05-13T09:57:52.677Z,55.46
2019-05-13T10:00:18.631Z,55.31
2019-05-13T10:02:44.653Z,55.46
2019-05-13T10:05:11.520Z,55.39
2019-05-13T10:07:36.672Z,55.33
2019-05-13T10:10:02.699Z,55.40
2019-05-13T10:12:28.707Z,55.22
2019-05-13T10:14:54.728Z,55.31
2019-05-13T10:17:22.106Z,55.33
2019-05-13T10:19:46.742Z,55.34
2019-05-13T10:22:12.818Z,55.34
2019-05-13T10:24:38.756Z,55.28
2019-05-13T10:27:04.796Z,55.24
2019-05-13T10:29:31.692Z,55.33
2019-05-13T10:31:56.806Z,55.28
2019-05-13T10:34:22.937Z,55.22
2019-05-13T10:36:51.239Z,55.26
2019-05-13T10:39:14.820Z,55.21
2019-05-13T10:41:42.383Z,55.19
2019-05-13T10:44:07.081Z,55.21
2019-05-13T10:46:33.077Z,55.16
2019-05-13T10:49:01.708Z,55.18
2019-05-13T10:51:25.516Z,55.14
2019-05-13T10:53:53.614Z,55.27
2019-05-13T10:56:17.679Z,55.23
2019-05-13T10:58:43.718Z,55.28
2019-05-13T11:01:11.583Z,55.21
2019-05-13T11:03:35.808Z,55.30
2019-05-13T11:06:02.537Z,55.34
2019-05-13T11:08:28.529Z,55.26
2019-05-13T11:10:55.674Z,55.25
2019-05-13T11:13:23.257Z,55.25
2019-05-13T11:15:47.698Z,55.22
2019-05-13T11:18:19.097Z,55.17
2019-05-13T11:20:41.937Z,55.11
2019-05-13T11:23:05.755Z,55.10
2019-05-13T11:25:32.383Z,55.14
2019-05-13T11:28:01.678Z,55.12
2019-05-13T11:30:26.057Z,55.11
2019-05-13T11:32:52.047Z,55.04
2019-05-13T11:35:18.073Z,55.16
2019-05-13T11:37:44.063Z,55.17
2019-05-13T11:40:12.000Z,55.19
2019-05-13T11:42:36.216Z,55.23
2019-05-13T11:45:02.190Z,55.32
2019-05-13T11:47:28.207Z,55.28
2019-05-13T11:49:54.206Z,55.29
2019-05-13T11:52:22.690Z,55.32
2019-05-13T11:54:46.803Z,55.30
2019-05-13T11:57:12.898Z,55.33
2019-05-13T11:59:42.380Z,55.32
2019-05-13T12:02:05.058Z,55.19
2019-05-13T12:04:34.579Z,55.30
2019-05-13T12:06:56.951Z,55.28
2019-05-13T12:09:22.965Z,55.30
2019-05-13T12:11:48.960Z,55.28
2019-05-13T12:14:42.412Z,55.15
2019-05-13T12:16:42.337Z,55.17
2019-05-13T12:19:07.133Z,55.06
2019-05-13T12:21:33.232Z,55.19
2019-05-13T12:24:06.645Z,55.37
2019-05-13T12:26:25.243Z,55.28
2019-05-13T12:28:53.529Z,55.41
2019-05-13T12:31:17.381Z,55.20
2019-05-13T12:33:44.047Z,55.43
2019-05-13T12:36:15.374Z,55.18
2019-05-13T12:38:35.466Z,55.19
2019-05-13T12:41:05.037Z,55.46
2019-05-13T12:43:27.597Z,55.24
2019-05-13T12:45:53.702Z,55.52
2019-05-13T12:48:22.669Z,55.56
2019-05-13T12:50:45.843Z,55.49
2019-05-13T12:53:12.943Z,55.59
2019-05-13T12:55:38.253Z,55.58
2019-05-13T12:58:04.334Z,55.59
2019-05-13T13:00:32.922Z,55.51
2019-05-13T13:02:56.354Z,55.56
2019-05-13T13:05:24.811Z,55.67
2019-05-13T13:08:13.605Z,55.53
2019-05-13T13:10:14.895Z,55.71
2019-05-13T13:12:42.102Z,55.69
2019-05-13T13:15:31.991Z,55.59
2019-05-13T13:17:32.447Z,55.57
2019-05-13T13:20:06.199Z,55.56
2019-05-13T13:22:25.325Z,55.76
2019-05-13T13:24:52.983Z,55.71
2019-05-13T13:27:25.915Z,55.55
2019-05-13T13:29:43.278Z,55.73
2019-05-13T13:32:08.633Z,55.77
2019-05-13T13:34:34.626Z,55.87
2019-05-13T13:37:04.694Z,55.64
2019-05-13T13:39:26.682Z,55.74
2019-05-13T13:41:53.605Z,55.81
2019-05-13T13:44:18.675Z,55.52
2019-05-13T13:46:49.528Z,55.54
2019-05-13T13:49:13.019Z,55.55
2019-05-13T13:51:36.702Z,55.52
2019-05-13T13:54:02.697Z,55.48
2019-05-13T13:56:28.721Z,55.31
2019-05-13T13:58:54.777Z,55.52
2019-05-13T14:01:26.915Z,55.32
2019-05-13T14:03:46.769Z,55.46
2019-05-13T14:06:12.891Z,55.44
2019-05-13T14:08:41.399Z,55.39
2019-05-13T14:11:04.814Z,55.43
2019-05-13T14:13:32.376Z,55.31
2019-05-13T14:15:56.929Z,55.36
2019-05-13T14:18:26.682Z,55.35
2019-05-13T14:20:48.940Z,55.26
2019-05-13T14:23:15.171Z,55.20
2019-05-13T14:25:42.071Z,55.44
2019-05-13T14:28:07.190Z,55.47
2019-05-13T14:30:33.197Z,55.53
2019-05-13T14:32:59.204Z,55.41
2019-05-13T14:35:25.223Z,55.31
2019-05-13T14:37:51.859Z,55.49
2019-05-13T14:40:17.235Z,55.50
2019-05-13T14:42:43.281Z,55.32
2019-05-13T14:45:09.272Z,55.22
2019-05-13T14:47:35.302Z,55.23
2019-05-13T14:50:02.088Z,55.29
2019-05-13T14:52:27.451Z,55.20
2019-05-13T14:54:53.432Z,55.22
2019-05-13T14:57:21.545Z,55.25
2019-05-13T14:59:45.505Z,55.29
2019-05-13T15:02:12.061Z,55.28
2019-05-13T15:04:37.725Z,55.16
2019-05-13T15:07:03.747Z,55.24
2019-05-13T15:09:31.420Z,55.28
2019-05-13T15:11:55.966Z,55.22
2019-05-13T15:14:22.147Z,55.17
2019-05-13T15:17:02.430Z,55.19
2019-05-13T15:19:14.089Z,55.46
2019-05-13T15:21:41.254Z,55.44
2019-05-13T15:24:06.250Z,55.58
2019-05-13T15:26:32.146Z,55.61
2019-05-13T15:29:01.537Z,56.41
2019-05-13T15:31:24.215Z,56.59
2019-05-13T15:33:52.360Z,56.70
2019-05-13T15:36:17.411Z,56.41
2019-05-13T15:38:43.426Z,56.60
2019-05-13T15:41:14.732Z,56.18
2019-05-13T15:43:35.459Z,56.57
2019-05-13T15:46:02.016Z,56.16
2019-05-13T15:48:27.524Z,56.42
2019-05-13T15:50:53.544Z,56.11
2019-05-13T15:53:21.404Z,56.40
2019-05-13T15:55:45.545Z,55.88
2019-05-13T15:58:11.934Z,56.20
2019-05-13T16:00:37.559Z,56.24
2019-05-13T16:03:03.696Z,56.34
2019-05-13T16:05:31.285Z,56.16
2019-05-13T16:07:55.714Z,56.05
2019-05-13T16:10:21.909Z,56.38
2019-05-13T16:12:47.911Z,56.28
2019-05-13T16:15:15.828Z,55.99
2019-05-13T16:17:53.623Z,56.43
2019-05-13T16:20:06.001Z,56.31
2019-05-13T16:22:32.005Z,56.44
2019-05-13T16:24:58.039Z,56.22
2019-05-13T16:27:24.077Z,56.63
2019-05-13T16:29:51.528Z,56.69
2019-05-13T16:32:16.099Z,56.15
2019-05-13T16:34:42.492Z,56.78
2019-05-13T16:37:08.119Z,56.55
2019-05-13T16:39:34.178Z,56.72
2019-05-13T16:42:00.168Z,56.85
2019-05-13T16:44:26.191Z,56.56
2019-05-13T16:46:52.196Z,56.76
2019-05-13T16:49:18.206Z,56.76
2019-05-13T16:51:44.340Z,56.76
2019-05-13T16:54:10.347Z,57.12
2019-05-13T16:56:36.411Z,56.89
2019-05-13T16:59:02.393Z,57.21
2019-05-13T17:01:28.719Z,57.03
2019-05-13T17:03:55.047Z,57.20
2019-05-13T17:06:21.689Z,56.75
2019-05-13T17:08:47.069Z,56.97
2019-05-13T17:11:13.087Z,57.10
2019-05-13T17:13:39.106Z,57.16
2019-05-13T17:16:05.103Z,56.99
2019-05-13T17:18:32.393Z,57.14
2019-05-13T17:20:57.122Z,56.96
2019-05-13T17:23:23.149Z,56.75
2019-05-13T17:25:51.793Z,57.06
2019-05-13T17:28:15.171Z,56.86
2019-05-13T17:30:41.182Z,57.05
2019-05-13T17:33:07.168Z,56.56
2019-05-13T17:35:33.192Z,56.68
2019-05-13T17:37:59.195Z,56.50
2019-05-13T17:40:25.283Z,56.56
2019-05-13T17:42:51.295Z,56.48
2019-05-13T17:45:17.299Z,56.39
2019-05-13T17:47:43.326Z,56.47
2019-05-13T17:50:11.515Z,56.37
2019-05-13T17:52:35.354Z,56.50
2019-05-13T17:55:01.373Z,56.49
2019-05-13T17:57:27.411Z,56.32
2019-05-13T17:59:53.408Z,56.18
2019-05-13T18:02:19.504Z,56.54
2019-05-13T18:04:45.634Z,56.22
2019-05-13T18:07:12.209Z,56.28
2019-05-13T18:09:37.723Z,56.09
2019-05-13T18:12:03.739Z,56.18
2019-05-13T18:14:29.982Z,56.08
2019-05-13T18:16:57.191Z,56.00
2019-05-13T18:19:22.223Z,56.10
2019-05-13T18:21:48.021Z,56.06
2019-05-13T18:24:14.038Z,56.09
2019-05-13T18:26:41.957Z,56.11
2019-05-13T18:29:06.224Z,56.35
2019-05-13T18:31:32.232Z,56.46
2019-05-13T18:33:58.237Z,56.37
2019-05-13T18:36:24.255Z,56.55
2019-05-13T18:38:50.416Z,56.50
2019-05-13T18:41:16.439Z,56.19
2019-05-13T18:43:42.436Z,56.24
2019-05-13T18:46:08.467Z,56.49
2019-05-13T18:48:34.528Z,56.49
2019-05-13T18:51:01.315Z,56.09
2019-05-13T18:53:26.562Z,56.18
2019-05-13T18:55:52.930Z,56.34
2019-05-13T18:58:18.957Z,56.24
2019-05-13T19:00:44.981Z,56.25
2019-05-13T19:03:12.454Z,56.44
2019-05-13T19:05:37.298Z,56.48
2019-05-13T19:08:03.305Z,56.23
2019-05-13T19:10:31.198Z,56.57
2019-05-13T19:12:57.854Z,56.25
2019-05-13T19:15:21.506Z,56.34
2019-05-13T19:17:47.525Z,56.41
2019-05-13T19:20:13.533Z,56.24
2019-05-13T19:22:41.288Z,56.37
2019-05-13T19:25:05.652Z,56.49
2019-05-13T19:27:32.141Z,56.46
2019-05-13T19:29:57.690Z,56.39
2019-05-13T19:32:23.783Z,56.69
2019-05-13T19:34:51.665Z,56.44
2019-05-13T19:37:15.812Z,56.64
2019-05-13T19:39:42.481Z,56.91
2019-05-13T19:42:08.476Z,56.77
2019-05-13T19:44:34.491Z,56.61
2019-05-13T19:47:02.007Z,56.99
2019-05-13T19:49:32.616Z,56.75
2019-05-13T19:51:52.590Z,56.56
2019-05-13T19:54:18.642Z,56.94
2019-05-13T19:56:44.664Z,56.88
2019-05-13T19:59:12.432Z,56.75
2019-05-13T20:01:36.762Z,56.49
2019-05-13T20:04:03.584Z,56.68
2019-05-13T20:06:31.845Z,56.67
2019-05-13T20:08:55.690Z,56.69
2019-05-13T20:11:21.925Z,56.95
2019-05-13T20:13:48.112Z,57.04
2019-05-13T20:16:14.111Z,56.71
2019-05-13T20:18:42.096Z,56.83
2019-05-13T20:21:10.486Z,57.16
2019-05-13T20:23:34.188Z,57.02
2019-05-13T20:26:00.315Z,56.58
2019-05-13T20:28:26.330Z,56.80
2019-05-13T20:30:52.334Z,56.84
2019-05-13T20:33:18.356Z,56.48
2019-05-13T20:35:44.362Z,56.47
2019-05-13T20:38:11.592Z,56.57
2019-05-13T20:40:36.552Z,56.46
2019-05-13T20:43:02.732Z,56.56
2019-05-13T20:45:31.102Z,56.74
2019-05-13T20:47:54.724Z,56.44
2019-05-13T20:50:21.712Z,56.37
2019-05-13T20:52:46.737Z,56.41
2019-05-13T20:55:12.760Z,56.55
2019-05-13T20:57:38.753Z,56.62
2019-05-13T21:00:04.769Z,56.63
2019-05-13T21:02:31.959Z,56.68
2019-05-13T21:04:56.798Z,56.91
2019-05-13T21:07:22.815Z,57.00
2019-05-13T21:09:51.119Z,57.03
2019-05-13T21:12:14.841Z,56.71
2019-05-13T21:14:41.419Z,56.92
2019-05-13T21:17:06.888Z,57.23
2019-05-13T21:19:39.293Z,56.93
2019-05-13T21:21:58.955Z,56.86
2019-05-13T21:24:24.954Z,56.68
2019-05-13T21:26:51.268Z,56.60
2019-05-13T21:29:17.019Z,56.91
2019-05-13T21:31:43.026Z,57.71
2019-05-13T21:34:09.066Z,57.63
2019-05-13T21:36:35.070Z,56.97
2019-05-13T21:39:02.973Z,57.04
2019-05-13T21:41:28.996Z,56.84
2019-05-13T21:43:54.987Z,57.04
2019-05-13T21:46:21.320Z,56.83
2019-05-13T21:48:47.152Z,56.58
2019-05-13T21:51:13.564Z,56.68
2019-05-13T21:53:41.258Z,56.59
2019-05-13T21:56:05.269Z,56.57
2019-05-13T21:58:31.410Z,56.51
2019-05-13T22:00:57.328Z,56.60
2019-05-13T22:03:23.352Z,56.41
2019-05-13T22:05:51.292Z,56.32
2019-05-13T22:08:15.361Z,56.29
2019-05-13T22:10:41.696Z,56.28
2019-05-13T22:13:07.395Z,56.28
2019-05-13T22:15:33.398Z,56.16
2019-05-13T22:17:59.396Z,56.09
2019-05-13T22:20:25.415Z,56.06
2019-05-13T22:22:52.040Z,56.02
2019-05-13T22:25:17.406Z,55.98
2019-05-13T22:27:43.427Z,56.04
2019-05-13T22:30:11.698Z,55.90
2019-05-13T22:32:35.447Z,55.93
2019-05-13T22:35:01.955Z,55.86
2019-05-13T22:37:27.515Z,55.91
2019-05-13T22:39:53.519Z,55.77
2019-05-13T22:42:21.560Z,55.73
2019-05-13T22:44:45.637Z,55.71
2019-05-13T22:47:13.425Z,55.66
2019-05-13T22:49:37.657Z,55.58
2019-05-13T22:52:03.652Z,55.58
2019-05-13T22:54:31.638Z,55.60
2019-05-13T22:56:55.674Z,55.61
2019-05-13T22:59:21.669Z,55.56
2019-05-13T23:01:47.699Z,55.49
2019-05-13T23:04:13.704Z,55.68
2019-05-13T23:06:39.716Z,55.53
2019-05-13T23:09:05.722Z,55.48
2019-05-13T23:11:31.719Z,55.50
2019-05-13T23:14:07.338Z,55.43
2019-05-13T23:16:23.743Z,55.42
2019-05-13T23:18:51.311Z,55.39
2019-05-13T23:21:15.751Z,55.38
2019-05-13T23:23:41.746Z,55.36
2019-05-13T23:26:07.777Z,55.37
2019-05-13T23:28:33.769Z,55.32
2019-05-13T23:31:01.674Z,55.28
2019-05-13T23:33:25.796Z,55.26
2019-05-13T23:35:51.798Z,55.27
2019-05-13T23:38:17.818Z,55.22
2019-05-13T23:40:43.812Z,55.25
2019-05-13T23:43:11.304Z,55.24
2019-05-13T23:45:35.822Z,55.21
2019-05-13T23:48:01.822Z,55.22
2019-05-13T23:50:27.828Z,55.13
2019-05-13T23:52:53.817Z,55.15
2019-05-13T23:55:19.825Z,55.16
2019-05-13T23:57:45.821Z,55.13
